createdAt,value
2023-03-22T00:00:20.732Z,22.30
2023-03-22T00:03:11.651Z,21.50
2023-03-22T00:05:43.739Z,21.40
2023-03-22T00:08:15.248Z,19.90
2023-03-22T00:10:47.717Z,20.90
2023-03-22T00:13:17.077Z,21.50
2023-03-22T00:15:48.505Z,20.70
2023-03-22T00:18:20.728Z,21.30
2023-03-22T00:20:55.699Z,19.80
2023-03-22T00:26:41.408Z,19.80
2023-03-22T00:29:11.140Z,20.80
2023-03-22T00:31:41.377Z,20.10
2023-03-22T00:34:11.047Z,20.80
2023-03-22T00:36:40.863Z,21.20
2023-03-22T00:39:10.540Z,20.40
2023-03-22T00:41:40.163Z,20.80
2023-03-22T00:44:15.652Z,20.30
2023-03-22T00:46:45.342Z,21.50
2023-03-22T00:49:15.404Z,21.00
2023-03-22T00:51:49.086Z,22.10
2023-03-22T00:54:39.085Z,21.50
2023-03-22T00:57:26.885Z,21.70
2023-03-22T00:59:58.126Z,22.20
2023-03-22T01:02:29.329Z,21.60
2023-03-22T01:04:59.662Z,22.00
2023-03-22T01:07:28.989Z,22.30
2023-03-22T01:09:59.243Z,22.90
2023-03-22T01:12:30.614Z,22.20
2023-03-22T01:15:01.021Z,23.20
2023-03-22T01:17:41.665Z,22.90
2023-03-22T01:20:14.095Z,22.70
2023-03-22T01:22:44.818Z,22.50
2023-03-22T01:25:15.558Z,22.50
2023-03-22T01:27:47.823Z,23.80
2023-03-22T01:30:18.060Z,23.00
2023-03-22T01:32:48.911Z,22.90
2023-03-22T01:35:20.730Z,23.50
2023-03-22T01:37:51.676Z,22.70
2023-03-22T01:40:22.866Z,24.00
2023-03-22T01:42:54.093Z,23.90
2023-03-22T01:45:39.751Z,23.30
2023-03-22T01:48:20.102Z,23.40
2023-03-22T01:50:59.345Z,24.20
2023-03-22T01:53:40.225Z,23.10
2023-03-22T01:56:14.841Z,23.00
2023-03-22T01:58:45.430Z,22.70
2023-03-22T02:01:16.284Z,23.80
2023-03-22T02:03:50.570Z,22.70
2023-03-22T02:06:21.653Z,22.90
2023-03-22T02:08:52.597Z,23.40
2023-03-22T02:11:33.840Z,22.50
2023-03-22T02:14:41.234Z,23.40
2023-03-22T02:17:28.708Z,22.10
2023-03-22T02:20:34.110Z,21.50
2023-03-22T02:23:35.286Z,20.60
2023-03-22T02:26:38.692Z,22.00
2023-03-22T02:29:18.816Z,21.30
2023-03-22T02:32:33.471Z,22.30
2023-03-22T02:35:26.991Z,21.40
2023-03-22T02:38:42.341Z,21.60
2023-03-22T02:41:28.473Z,19.80
2023-03-22T02:44:21.953Z,20.30
2023-03-22T02:47:29.580Z,19.40
2023-03-22T02:50:10.917Z,19.70
2023-03-22T02:52:55.912Z,19.50
2023-03-22T02:55:35.751Z,21.20
2023-03-22T02:58:14.735Z,20.10
2023-03-22T03:00:53.931Z,19.60
2023-03-22T03:03:35.948Z,19.80
2023-03-22T03:06:20.974Z,19.60
2023-03-22T03:09:02.263Z,19.90
2023-03-22T03:11:33.741Z,20.30
2023-03-22T03:14:04.730Z,20.30
2023-03-22T03:16:37.870Z,20.30
2023-03-22T03:19:19.743Z,20.50
2023-03-22T03:22:14.345Z,19.80
2023-03-22T03:24:59.832Z,19.10
2023-03-22T03:27:43.736Z,20.30
2023-03-22T03:30:17.141Z,19.30
2023-03-22T03:32:55.967Z,19.50
2023-03-22T03:38:08.317Z,19.60
2023-03-22T03:40:41.452Z,18.40
2023-03-22T03:43:13.430Z,18.40
2023-03-22T03:45:45.742Z,18.90
2023-03-22T03:48:21.667Z,18.80
2023-03-22T03:50:57.473Z,18.40
2023-03-22T03:53:36.345Z,17.80
2023-03-22T03:56:14.775Z,19.00
2023-03-22T03:58:49.541Z,18.50
2023-03-22T04:01:21.303Z,18.50
2023-03-22T04:03:55.108Z,18.30
2023-03-22T04:06:38.965Z,17.90
2023-03-22T04:09:10.086Z,18.40
2023-03-22T04:11:40.723Z,18.80
2023-03-22T04:14:23.708Z,18.60
2023-03-22T04:16:55.701Z,19.60
2023-03-22T04:19:26.557Z,19.40
2023-03-22T04:21:59.747Z,18.80
2023-03-22T04:24:33.893Z,19.90
2023-03-22T04:27:03.588Z,19.10
2023-03-22T04:29:35.722Z,18.50
2023-03-22T04:32:06.424Z,19.30
2023-03-22T04:34:41.001Z,19.40
2023-03-22T04:37:23.052Z,18.70
2023-03-22T04:39:53.865Z,19.00
2023-03-22T04:42:24.313Z,18.20
2023-03-22T04:45:14.694Z,19.10
2023-03-22T04:47:45.309Z,18.90
2023-03-22T04:50:18.470Z,18.00
2023-03-22T04:52:54.319Z,18.10
2023-03-22T04:55:24.637Z,18.80
2023-03-22T04:57:56.257Z,18.50
2023-03-22T05:00:39.894Z,18.10
2023-03-22T05:03:23.162Z,19.40
2023-03-22T05:06:07.313Z,19.10
2023-03-22T05:09:17.988Z,17.70
2023-03-22T05:11:53.934Z,18.70
2023-03-22T05:14:24.533Z,18.80
2023-03-22T05:17:09.655Z,18.20
2023-03-22T05:20:08.624Z,18.50
2023-03-22T05:22:53.392Z,19.20
2023-03-22T05:25:26.206Z,17.60
2023-03-22T05:28:01.834Z,17.80
2023-03-22T05:30:38.706Z,19.00
2023-03-22T05:34:23.783Z,18.30
2023-03-22T05:37:01.164Z,17.90
2023-03-22T05:39:30.981Z,19.20
2023-03-22T05:42:01.000Z,17.80
2023-03-22T05:44:33.090Z,17.80
2023-03-22T05:47:08.678Z,17.00
2023-03-22T05:49:44.778Z,18.40
2023-03-22T05:52:20.400Z,16.90
2023-03-22T05:54:50.664Z,16.60
2023-03-22T05:57:22.799Z,18.10
2023-03-22T06:00:01.251Z,17.30
2023-03-22T06:02:30.937Z,17.60
2023-03-22T06:05:13.162Z,17.80
2023-03-22T06:07:43.246Z,17.30
2023-03-22T06:10:16.177Z,17.80
2023-03-22T06:15:50.370Z,17.80
2023-03-22T06:18:43.117Z,17.10
2023-03-22T06:21:20.614Z,16.40
2023-03-22T06:23:50.620Z,16.90
2023-03-22T06:26:24.180Z,17.40
2023-03-22T06:28:57.630Z,17.30
2023-03-22T06:31:30.947Z,16.30
2023-03-22T06:34:22.266Z,17.00
2023-03-22T06:36:54.242Z,17.30
2023-03-22T06:39:26.109Z,17.80
2023-03-22T06:41:58.310Z,17.60
2023-03-22T06:44:36.081Z,17.90
2023-03-22T06:47:09.220Z,16.80
2023-03-22T06:49:42.264Z,17.20
2023-03-22T06:52:17.519Z,16.70
2023-03-22T06:55:05.313Z,16.20
2023-03-22T06:57:43.663Z,15.70
2023-03-22T07:00:36.147Z,15.30
2023-03-22T07:03:05.849Z,16.30
2023-03-22T07:05:35.735Z,15.80
2023-03-22T07:08:05.199Z,16.50
2023-03-22T07:10:34.746Z,15.80
2023-03-22T07:13:04.152Z,16.10
2023-03-22T07:15:34.727Z,15.00
2023-03-22T07:18:04.385Z,15.40
2023-03-22T07:20:36.529Z,15.40
2023-03-22T07:23:08.652Z,16.50
2023-03-22T07:25:41.437Z,15.70
2023-03-22T07:28:14.202Z,15.70
2023-03-22T07:30:45.351Z,17.10
2023-03-22T07:33:15.464Z,15.90
2023-03-22T07:35:46.170Z,18.80
2023-03-22T07:41:06.294Z,17.30
2023-03-22T07:43:52.448Z,16.60
2023-03-22T07:46:27.573Z,17.40
2023-03-22T07:48:57.217Z,15.80
2023-03-22T07:51:29.980Z,17.50
2023-03-22T07:54:03.299Z,16.70
2023-03-22T07:56:33.286Z,17.10
2023-03-22T07:59:03.759Z,17.80
2023-03-22T08:01:34.704Z,17.90
2023-03-22T08:04:05.226Z,17.70
2023-03-22T08:06:44.169Z,16.30
2023-03-22T08:09:22.621Z,16.60
2023-03-22T08:12:11.410Z,16.80
2023-03-22T08:17:18.097Z,16.10
2023-03-22T08:19:47.937Z,15.30
2023-03-22T08:22:18.490Z,14.60
2023-03-22T08:24:48.396Z,14.80
2023-03-22T08:27:19.327Z,15.70
2023-03-22T08:29:53.546Z,15.90
2023-03-22T08:32:23.321Z,15.50
2023-03-22T08:34:53.054Z,15.60
2023-03-22T08:37:22.846Z,16.50
2023-03-22T08:39:53.918Z,16.40
2023-03-22T08:42:24.442Z,15.80
2023-03-22T08:44:54.561Z,16.40
2023-03-22T08:47:24.945Z,17.40
2023-03-22T08:49:55.224Z,16.40
2023-03-22T08:52:25.131Z,15.70
2023-03-22T08:54:55.891Z,16.10
2023-03-22T08:57:27.156Z,16.20
2023-03-22T08:59:57.605Z,15.50
2023-03-22T09:02:27.971Z,15.80
2023-03-22T09:04:58.596Z,15.90
2023-03-22T09:07:29.186Z,17.20
2023-03-22T09:10:00.022Z,16.70
2023-03-22T09:12:29.897Z,17.20
2023-03-22T09:15:00.146Z,17.60
2023-03-22T09:17:30.343Z,17.60
2023-03-22T09:20:13.114Z,18.30
2023-03-22T09:22:44.999Z,19.20
2023-03-22T09:25:14.952Z,18.10
2023-03-22T09:27:45.622Z,19.70
2023-03-22T09:30:17.551Z,18.70
2023-03-22T09:32:48.192Z,18.20
2023-03-22T09:35:18.270Z,19.40
2023-03-22T09:37:48.888Z,18.30
2023-03-22T09:40:19.651Z,18.60
2023-03-22T09:42:54.707Z,19.70
2023-03-22T09:45:37.611Z,19.10
2023-03-22T09:48:18.617Z,18.70
2023-03-22T09:50:54.753Z,20.30
2023-03-22T09:53:29.144Z,21.00
2023-03-22T09:56:18.251Z,20.90
2023-03-22T09:58:57.845Z,20.80
2023-03-22T10:01:39.589Z,20.70
2023-03-22T10:04:42.830Z,22.30
2023-03-22T10:10:08.269Z,24.20
2023-03-22T10:12:48.345Z,23.20
2023-03-22T10:15:28.845Z,23.00
2023-03-22T10:18:01.425Z,23.50
2023-03-22T10:20:43.301Z,23.50
2023-03-22T10:23:32.111Z,24.90
2023-03-22T10:26:05.066Z,24.90
2023-03-22T10:28:40.049Z,24.50
2023-03-22T10:31:19.733Z,24.10
2023-03-22T10:34:06.521Z,24.00
2023-03-22T10:36:45.014Z,22.70
2023-03-22T10:39:27.935Z,24.00
2023-03-22T10:42:02.387Z,23.40
2023-03-22T10:44:40.201Z,23.60
2023-03-22T10:47:11.625Z,23.40
2023-03-22T10:49:54.455Z,21.60
2023-03-22T10:52:41.307Z,23.10
2023-03-22T10:55:17.300Z,22.80
2023-03-22T10:58:13.341Z,24.00
2023-03-22T11:00:52.392Z,23.40
2023-03-22T11:03:34.861Z,19.40
2023-03-22T11:06:11.070Z,22.20
2023-03-22T11:08:56.723Z,23.20
2023-03-22T11:11:29.721Z,22.40
2023-03-22T11:14:06.514Z,21.70
2023-03-22T11:16:47.949Z,21.30
2023-03-22T11:19:26.170Z,21.50
2023-03-22T11:21:58.445Z,22.10
2023-03-22T11:24:34.592Z,22.10
2023-03-22T11:27:11.156Z,22.30
2023-03-22T11:29:52.028Z,22.10
2023-03-22T11:32:28.421Z,21.30
2023-03-22T11:35:04.985Z,21.70
2023-03-22T11:37:40.949Z,22.60
2023-03-22T11:40:16.441Z,20.40
2023-03-22T11:42:49.337Z,21.50
2023-03-22T11:45:27.719Z,21.90
2023-03-22T11:48:10.363Z,22.10
2023-03-22T11:50:46.070Z,21.80
2023-03-22T11:53:25.008Z,21.50
2023-03-22T11:56:16.548Z,21.70
2023-03-22T11:59:05.243Z,21.90
2023-03-22T12:02:13.162Z,20.70
2023-03-22T12:07:56.801Z,17.80
2023-03-22T12:10:32.074Z,20.90
2023-03-22T12:13:11.200Z,18.90
2023-03-22T12:15:48.437Z,20.40
2023-03-22T12:18:28.982Z,19.50
2023-03-22T12:21:01.618Z,19.80
2023-03-22T12:23:36.903Z,21.10
2023-03-22T12:26:14.463Z,19.40
2023-03-22T12:28:56.438Z,20.50
2023-03-22T12:31:33.873Z,19.90
2023-03-22T12:34:25.776Z,19.70
2023-03-22T12:36:59.889Z,20.00
2023-03-22T12:39:41.338Z,20.00
2023-03-22T12:42:21.905Z,18.30
2023-03-22T12:45:05.204Z,19.60
2023-03-22T12:47:50.867Z,18.90
2023-03-22T12:50:31.751Z,21.20
2023-03-22T12:53:04.049Z,19.80
2023-03-22T12:55:38.242Z,20.50
2023-03-22T12:58:10.343Z,19.30
2023-03-22T13:00:54.590Z,19.80
2023-03-22T13:03:49.305Z,17.50
2023-03-22T13:06:55.556Z,18.80
2023-03-22T13:09:49.053Z,18.80
2023-03-22T13:12:34.618Z,19.60
2023-03-22T13:15:41.838Z,19.10
2023-03-22T13:18:38.307Z,21.40
2023-03-22T13:21:19.447Z,19.50
2023-03-22T13:24:04.880Z,21.20
2023-03-22T13:26:42.325Z,17.90
2023-03-22T13:29:25.233Z,17.20
2023-03-22T13:32:00.185Z,16.50
2023-03-22T13:34:39.735Z,18.10
2023-03-22T13:37:30.051Z,18.70
2023-03-22T13:40:04.435Z,21.00
2023-03-22T13:42:38.997Z,20.10
2023-03-22T13:45:41.623Z,21.00
2023-03-22T13:48:36.062Z,23.00
2023-03-22T13:51:16.130Z,22.80
2023-03-22T13:54:02.289Z,24.10
2023-03-22T13:56:59.889Z,24.40
2023-03-22T14:00:09.442Z,25.10
2023-03-22T14:02:43.094Z,24.70
2023-03-22T14:05:27.233Z,24.70
2023-03-22T14:08:02.396Z,26.00
2023-03-22T14:10:47.887Z,25.80
2023-03-22T14:13:32.115Z,24.70
2023-03-22T14:16:19.536Z,23.80
2023-03-22T14:21:31.488Z,21.10
